Aérodrome :
LOGIN :

S'inscrire | Disclaimer

   EN    FR    IT 

 










Légende :    VFR   VFR Marginal   IFR   IFR Intensif   IFR Très Intensif
Visi : 
Plafond : 
>= 8 km
>= 3000ft
5 à 8 km
1000 à 3000 ft
1500m à 5 km
500 à 1000 ft
800 à 1500m
200 à 500 ft
< 800m
< 200 ft
Symboles :   Orages  Brouillard  Fortes neiges  Fortes précipitations  Vent > 20 kt
SIGMETs :   Divers  Orages  Givrage  Turbulence  Onde Orograph.  Cendres Volcan.






- Altitude de l'aérodrome : 472 ft
- Code IATA : GME


UMGG - Gomel

DERNIER METAR :
  • 170100Z 19007G10MPS CAVOK 02/M01 Q1020 R28/D NOSIG

METARs EXPIRÉS :
  • 170000Z 19008G12MPS CAVOK 02/M01 Q1020 R28/CLRD// NOSIG
  • 162300Z 19008G12MPS CAVOK 02/M01 Q1021 R28/D NOSIG

TAF TAF UMGG
Valide du 17 à 00h jusqu'au 18 à 00h UTC


162257Z 1700/1724 20007G12MPS 9999 BKN013
TEMPO 1700/1705 21010G15MPS 2100 -SHRA BKN005 SCT015CB
TEMPO 1705/1716 22011G16MPS
BECMG 1716/1718 22006G11MPS
TEMPO 1718/1724 1200 SHRA BR BKN004 BKN015CB



MET'MAP, la Météo Aéronautique d'un coup d'oeil ! - Copyright ORBIFLY Décembre 2007 - Disclaimer

ORBIFLY MET'MAP TEAM :

Programmation & Développement : Alexandra Zaïnal
Sur une idée originale de : Baudouin d'Aumeries
Assistance à la programmation : Marc-Olivier Méhu
Soutien technique & logistique : Manuel Goepfert

Contact : metmap@orbifly.com




SOURCES & CREDITS :

   NOAA